createdAt,value
2019-01-22T00:00:23.915Z,30.00
2019-01-22T00:02:53.696Z,29.73
2019-01-22T00:05:22.970Z,35.53
2019-01-22T00:07:52.163Z,31.73
2019-01-22T00:10:21.345Z,33.97
2019-01-22T00:12:50.560Z,28.07
2019-01-22T00:15:19.744Z,29.30
2019-01-22T00:17:49.022Z,31.97
2019-01-22T00:20:18.228Z,31.47
2019-01-22T00:22:47.410Z,29.70
2019-01-22T00:25:16.602Z,29.60
2019-01-22T00:27:45.778Z,34.20
2019-01-22T00:30:20.632Z,26.60
2019-01-22T00:32:49.812Z,28.80
2019-01-22T00:35:19.011Z,29.70
2019-01-22T00:37:48.208Z,30.80
2019-01-22T00:40:18.533Z,27.67
2019-01-22T00:42:48.011Z,27.90
2019-01-22T00:45:17.378Z,27.17
2019-01-22T00:47:46.594Z,26.80
2019-01-22T00:50:18.116Z,27.87
2019-01-22T00:52:47.314Z,25.43
2019-01-22T00:55:18.973Z,25.17
2019-01-22T00:57:48.448Z,27.80
2019-01-22T01:00:29.374Z,29.30
2019-01-22T01:02:58.699Z,28.70
2019-01-22T01:05:28.438Z,27.30
2019-01-22T01:07:58.957Z,25.73
2019-01-22T01:10:28.354Z,27.00
2019-01-22T01:12:57.551Z,26.00
2019-01-22T01:15:26.744Z,26.60
2019-01-22T01:17:55.952Z,29.80
2019-01-22T01:20:25.154Z,26.17
2019-01-22T01:22:54.353Z,28.53
2019-01-22T01:25:24.102Z,24.27
2019-01-22T01:27:55.276Z,25.57
2019-01-22T01:30:25.038Z,25.40
2019-01-22T01:32:54.674Z,25.80
2019-01-22T01:35:23.883Z,25.63
2019-01-22T01:37:53.332Z,25.40
2019-01-22T01:40:22.537Z,27.73
2019-01-22T01:42:52.053Z,29.47
2019-01-22T01:45:21.281Z,26.50
2019-01-22T01:47:50.529Z,24.87
2019-01-22T01:50:19.882Z,25.50
2019-01-22T01:52:49.061Z,25.50
2019-01-22T01:55:19.209Z,27.77
2019-01-22T01:57:48.413Z,27.70
2019-01-22T02:00:19.618Z,28.30
2019-01-22T02:02:48.814Z,29.67
2019-01-22T02:05:19.088Z,25.90
2019-01-22T02:07:48.343Z,27.03
2019-01-22T02:10:20.080Z,26.20
2019-01-22T02:12:53.620Z,27.50
2019-01-22T02:15:31.532Z,27.60
2019-01-22T02:18:09.616Z,26.37
2019-01-22T02:20:57.281Z,30.50
2019-01-22T02:24:04.765Z,31.33
2019-01-22T02:26:48.658Z,28.27
2019-01-22T02:29:24.615Z,28.90
2019-01-22T02:32:05.540Z,24.37
2019-01-22T02:34:59.206Z,24.40
2019-01-22T02:37:52.868Z,27.77
2019-01-22T02:40:27.937Z,28.63
2019-01-22T02:43:09.266Z,25.67
2019-01-22T02:45:44.599Z,25.20
2019-01-22T02:48:32.232Z,26.67
2019-01-22T02:51:21.928Z,23.77
2019-01-22T02:53:56.822Z,30.80
2019-01-22T02:56:40.498Z,27.93
2019-01-22T02:59:43.184Z,27.17
2019-01-22T03:02:16.745Z,24.57
2019-01-22T03:04:49.207Z,26.20
2019-01-22T03:07:27.245Z,28.83
2019-01-22T03:10:14.855Z,23.40
2019-01-22T03:13:08.088Z,21.50
2019-01-22T03:16:13.622Z,24.67
2019-01-22T03:18:49.325Z,25.60
2019-01-22T03:21:39.099Z,22.20
2019-01-22T03:24:41.330Z,23.73
2019-01-22T03:27:16.653Z,23.03
2019-01-22T03:30:05.512Z,21.50
2019-01-22T03:32:49.720Z,22.33
2019-01-22T03:35:43.556Z,28.90
2019-01-22T03:38:19.144Z,23.63
2019-01-22T03:41:08.131Z,24.00
2019-01-22T03:43:59.717Z,28.40
2019-01-22T03:46:43.749Z,27.00
2019-01-22T03:49:25.003Z,25.93
2019-01-22T03:52:08.959Z,24.07
2019-01-22T03:54:47.049Z,25.30
2019-01-22T03:57:19.815Z,26.20
2019-01-22T03:59:49.015Z,24.07
2019-01-22T04:02:22.127Z,30.00
2019-01-22T04:04:51.324Z,23.93
2019-01-22T04:07:20.529Z,29.57
2019-01-22T04:09:49.981Z,25.53
2019-01-22T04:12:19.188Z,28.47
2019-01-22T04:14:48.360Z,26.43
2019-01-22T04:17:19.506Z,23.67
2019-01-22T04:19:48.709Z,27.13
2019-01-22T04:22:20.508Z,27.27
2019-01-22T04:24:58.583Z,26.63
2019-01-22T04:27:48.865Z,26.47
2019-01-22T04:30:39.788Z,24.87
2019-01-22T04:33:43.658Z,31.83
2019-01-22T04:36:21.309Z,32.10
2019-01-22T04:38:57.553Z,35.43
2019-01-22T04:41:49.108Z,33.83
2019-01-22T04:44:23.958Z,30.50
2019-01-22T04:47:02.454Z,43.67
2019-01-22T04:49:43.187Z,32.83
2019-01-22T04:52:30.181Z,34.47
2019-01-22T04:55:13.911Z,35.97
2019-01-22T04:57:48.956Z,36.47
2019-01-22T05:00:27.117Z,38.87
2019-01-22T05:02:59.875Z,38.50
2019-01-22T05:05:47.205Z,41.07
2019-01-22T05:08:34.663Z,40.73
2019-01-22T05:11:09.504Z,39.23
2019-01-22T05:13:50.474Z,40.40
2019-01-22T05:16:22.856Z,40.30
2019-01-22T05:18:58.197Z,51.03
2019-01-22T05:21:48.555Z,40.57
2019-01-22T05:24:26.781Z,44.77
2019-01-22T05:27:08.061Z,44.53
2019-01-22T05:29:48.915Z,57.43
2019-01-22T05:32:38.069Z,46.13
2019-01-22T05:35:28.682Z,49.90
2019-01-22T05:38:07.026Z,50.10
2019-01-22T05:40:57.758Z,52.07
2019-01-22T05:43:49.358Z,54.73
2019-01-22T05:46:38.045Z,50.07
2019-01-22T05:49:16.222Z,49.67
2019-01-22T05:52:00.898Z,54.90
2019-01-22T05:54:33.258Z,51.37
2019-01-22T05:57:05.678Z,54.10
2019-01-22T05:59:53.088Z,66.23
2019-01-22T06:02:24.596Z,55.20
2019-01-22T06:05:09.588Z,54.40
2019-01-22T06:08:10.926Z,49.80
2019-01-22T06:11:01.221Z,50.33
2019-01-22T06:13:50.284Z,48.13
2019-01-22T06:16:34.618Z,46.73
2019-01-22T06:19:18.744Z,43.57
2019-01-22T06:21:56.808Z,51.83
2019-01-22T06:24:38.160Z,46.33
2019-01-22T06:27:13.019Z,53.93
2019-01-22T06:30:01.468Z,46.67
2019-01-22T06:32:42.497Z,47.27
2019-01-22T06:35:32.774Z,52.27
2019-01-22T06:38:26.235Z,51.63
2019-01-22T06:41:07.596Z,55.77
2019-01-22T06:44:04.108Z,59.97
2019-01-22T06:46:51.260Z,54.67
2019-01-22T06:49:35.401Z,49.03
2019-01-22T06:52:16.557Z,53.40
2019-01-22T06:55:04.125Z,47.80
2019-01-22T06:57:39.460Z,50.13
2019-01-22T07:00:24.130Z,49.23
2019-01-22T07:02:59.578Z,47.80
2019-01-22T07:05:40.784Z,58.43
2019-01-22T07:08:31.015Z,52.70
2019-01-22T07:11:15.177Z,51.83
2019-01-22T07:14:08.567Z,49.30
2019-01-22T07:16:49.849Z,49.90
2019-01-22T07:19:27.963Z,54.57
2019-01-22T07:22:30.618Z,54.10
2019-01-22T07:25:04.897Z,49.90
2019-01-22T07:27:54.861Z,47.00
2019-01-22T07:30:51.129Z,43.70
2019-01-22T07:33:29.409Z,41.30
2019-01-22T07:36:04.489Z,47.70
2019-01-22T07:38:45.818Z,43.80
2019-01-22T07:41:26.954Z,38.60
2019-01-22T07:43:59.390Z,42.10
2019-01-22T07:46:40.435Z,38.73
2019-01-22T07:49:30.537Z,41.53
2019-01-22T07:52:08.703Z,40.30
2019-01-22T07:54:53.560Z,43.33
2019-01-22T07:57:45.287Z,37.60
2019-01-22T08:00:17.676Z,33.77
2019-01-22T08:03:18.920Z,36.47
2019-01-22T08:05:52.933Z,38.80
2019-01-22T08:08:26.931Z,38.00
2019-01-22T08:11:18.354Z,37.57
2019-01-22T08:13:56.689Z,42.40
2019-01-22T08:16:45.810Z,37.27
2019-01-22T08:19:27.190Z,36.47
2019-01-22T08:22:08.240Z,37.97
2019-01-22T08:24:43.422Z,41.97
2019-01-22T08:27:32.289Z,37.80
2019-01-22T08:30:04.660Z,38.13
2019-01-22T08:32:53.800Z,38.93
2019-01-22T08:35:42.902Z,36.73
2019-01-22T08:38:15.273Z,42.67
2019-01-22T08:40:53.674Z,40.07
2019-01-22T08:43:31.711Z,45.33
2019-01-22T08:46:12.792Z,36.73
2019-01-22T08:49:04.207Z,36.17
2019-01-22T08:51:55.990Z,36.43
2019-01-22T08:54:39.639Z,37.37
2019-01-22T08:57:17.796Z,40.07
2019-01-22T09:00:02.220Z,46.40
2019-01-22T09:02:34.584Z,43.60
2019-01-22T09:05:21.985Z,42.67
2019-01-22T09:07:57.185Z,45.47
2019-01-22T09:10:44.544Z,39.83
2019-01-22T09:13:27.077Z,43.43
2019-01-22T09:16:22.298Z,40.00
2019-01-22T09:19:03.239Z,43.37
2019-01-22T09:21:52.308Z,41.40
2019-01-22T09:24:39.026Z,48.63
2019-01-22T09:27:14.525Z,39.47
2019-01-22T09:30:02.017Z,42.00
2019-01-22T09:32:53.337Z,40.73
2019-01-22T09:35:36.954Z,42.50
2019-01-22T09:38:06.817Z,39.67
2019-01-22T09:40:35.989Z,38.37
2019-01-22T09:43:05.662Z,39.07
2019-01-22T09:45:34.854Z,41.27
2019-01-22T09:48:04.225Z,46.30
2019-01-22T09:50:34.302Z,41.03
2019-01-22T09:53:03.675Z,38.80
2019-01-22T09:55:32.881Z,41.43
2019-01-22T09:58:02.085Z,42.20
2019-01-22T10:00:31.334Z,35.97
2019-01-22T10:03:00.542Z,34.77
2019-01-22T10:05:29.721Z,34.33
2019-01-22T10:07:59.869Z,31.23
2019-01-22T10:10:29.129Z,32.73
2019-01-22T10:12:58.337Z,28.20
2019-01-22T10:15:27.640Z,28.50
2019-01-22T10:17:57.161Z,32.23
2019-01-22T10:20:26.345Z,33.77
2019-01-22T10:22:55.554Z,34.97
2019-01-22T10:25:29.374Z,34.70
2019-01-22T10:27:55.898Z,35.03
2019-01-22T10:30:25.636Z,38.20
2019-01-22T10:32:54.840Z,31.57
2019-01-22T10:35:24.037Z,36.97
2019-01-22T10:37:53.216Z,31.00
2019-01-22T10:40:24.360Z,33.37
2019-01-22T10:42:53.551Z,34.77
2019-01-22T10:45:22.748Z,31.30
2019-01-22T10:47:52.075Z,37.40
2019-01-22T10:50:22.662Z,31.40
2019-01-22T10:52:51.865Z,28.77
2019-01-22T10:55:21.129Z,32.57
2019-01-22T10:57:50.319Z,27.27
2019-01-22T11:00:25.664Z,29.53
2019-01-22T11:02:54.869Z,33.20
2019-01-22T11:05:26.989Z,32.27
2019-01-22T11:07:56.169Z,29.17
2019-01-22T11:10:25.369Z,28.17
2019-01-22T11:12:54.573Z,32.30
2019-01-22T11:15:27.868Z,31.47
2019-01-22T11:17:55.758Z,28.27
2019-01-22T11:20:30.049Z,26.77
2019-01-22T11:22:59.261Z,28.70
2019-01-22T11:25:30.805Z,29.30
2019-01-22T11:28:00.087Z,27.00
2019-01-22T11:30:29.440Z,29.27
2019-01-22T11:32:58.642Z,26.27
2019-01-22T11:35:27.828Z,29.13
2019-01-22T11:37:57.028Z,26.40
2019-01-22T11:40:32.233Z,27.77
2019-01-22T11:43:01.623Z,31.37
2019-01-22T11:45:30.919Z,26.80
2019-01-22T11:48:00.158Z,29.27
2019-01-22T11:50:29.336Z,27.77
2019-01-22T11:52:58.549Z,28.53
2019-01-22T11:55:28.070Z,25.83
2019-01-22T11:57:57.554Z,28.83
2019-01-22T12:00:38.127Z,27.87
2019-01-22T12:03:07.305Z,28.77
2019-01-22T12:05:36.516Z,29.37
2019-01-22T12:08:05.698Z,33.17
2019-01-22T12:10:35.232Z,28.60
2019-01-22T12:13:05.151Z,29.90
2019-01-22T12:15:34.345Z,33.77
2019-01-22T12:18:03.734Z,29.93
2019-01-22T12:20:38.964Z,32.27
2019-01-22T12:23:08.164Z,27.80
2019-01-22T12:25:37.374Z,31.77
2019-01-22T12:28:06.566Z,30.70
2019-01-22T12:30:37.600Z,34.10
2019-01-22T12:33:07.182Z,33.50
2019-01-22T12:35:36.403Z,26.80
2019-01-22T12:38:05.779Z,29.20
2019-01-22T12:40:35.350Z,30.90
2019-01-22T12:43:05.369Z,29.87
2019-01-22T12:45:37.462Z,30.90
2019-01-22T12:48:07.594Z,31.20
2019-01-22T12:50:37.529Z,36.77
2019-01-22T12:53:06.949Z,35.03
2019-01-22T12:55:36.136Z,33.13
2019-01-22T12:58:05.340Z,35.87
2019-01-22T13:00:36.495Z,34.30
2019-01-22T13:03:05.847Z,35.60
2019-01-22T13:05:43.965Z,39.67
2019-01-22T13:08:13.158Z,35.57
2019-01-22T13:10:42.357Z,36.40
2019-01-22T13:13:11.527Z,37.80
2019-01-22T13:15:40.820Z,37.67
2019-01-22T13:18:11.674Z,37.30
2019-01-22T13:20:41.515Z,38.73
2019-01-22T13:23:10.733Z,36.53
2019-01-22T13:25:39.942Z,40.07
2019-01-22T13:28:09.121Z,42.60
2019-01-22T13:30:38.332Z,45.90
2019-01-22T13:33:07.580Z,41.27
2019-01-22T13:35:36.790Z,42.17
2019-01-22T13:38:06.391Z,43.33
2019-01-22T13:40:35.673Z,38.63
2019-01-22T13:43:04.947Z,41.03
2019-01-22T13:45:36.613Z,38.63
2019-01-22T13:48:08.846Z,45.30
2019-01-22T13:50:38.093Z,41.10
2019-01-22T13:53:07.286Z,43.03
2019-01-22T13:55:38.629Z,45.70
2019-01-22T13:58:08.025Z,46.83
2019-01-22T14:00:37.208Z,39.80
2019-01-22T14:03:06.656Z,43.70
2019-01-22T14:05:35.920Z,42.77
2019-01-22T14:08:05.365Z,43.97
2019-01-22T14:10:34.535Z,43.07
2019-01-22T14:13:03.899Z,52.07
2019-01-22T14:15:38.092Z,47.50
2019-01-22T14:18:08.344Z,46.67
2019-01-22T14:20:37.521Z,45.37
2019-01-22T14:23:06.712Z,41.97
2019-01-22T14:25:35.907Z,40.73
2019-01-22T14:28:05.156Z,47.97
2019-01-22T14:30:36.780Z,45.73
2019-01-22T14:33:06.390Z,45.00
2019-01-22T14:35:35.639Z,43.33
2019-01-22T14:38:05.169Z,43.83
2019-01-22T14:40:34.674Z,42.00
2019-01-22T14:43:04.041Z,45.77
2019-01-22T14:45:33.233Z,44.37
2019-01-22T14:48:02.450Z,48.13
2019-01-22T14:50:33.551Z,45.57
2019-01-22T14:53:02.786Z,42.90
2019-01-22T14:55:32.281Z,45.60
2019-01-22T14:58:01.469Z,48.13
2019-01-22T15:00:30.818Z,44.90
2019-01-22T15:03:01.610Z,40.10
2019-01-22T15:05:30.782Z,41.43
2019-01-22T15:07:59.979Z,40.97
2019-01-22T15:10:29.168Z,43.07
2019-01-22T15:12:59.392Z,48.87
2019-01-22T15:15:29.469Z,41.57
2019-01-22T15:17:58.828Z,45.30
2019-01-22T15:20:29.022Z,42.40
2019-01-22T15:22:59.313Z,43.70
2019-01-22T15:25:28.510Z,43.00
2019-01-22T15:27:57.711Z,45.93
2019-01-22T15:30:32.212Z,41.37
2019-01-22T15:33:01.409Z,45.53
2019-01-22T15:35:30.649Z,43.27
2019-01-22T15:38:00.821Z,45.53
2019-01-22T15:40:31.229Z,42.00
2019-01-22T15:43:00.433Z,46.53
2019-01-22T15:45:29.808Z,41.63
2019-01-22T15:47:58.981Z,40.67
2019-01-22T15:50:28.189Z,36.53
2019-01-22T15:52:58.453Z,42.00
2019-01-22T15:55:32.571Z,43.03
2019-01-22T15:58:01.772Z,39.90
2019-01-22T16:00:30.986Z,44.97
2019-01-22T16:03:00.247Z,43.20
2019-01-22T16:05:30.347Z,45.07
2019-01-22T16:07:59.542Z,38.33
2019-01-22T16:10:28.716Z,42.93
2019-01-22T16:12:57.908Z,41.13
2019-01-22T16:15:27.273Z,43.30
2019-01-22T16:17:56.523Z,46.33
2019-01-22T16:20:27.245Z,47.60
2019-01-22T16:22:56.510Z,43.40
2019-01-22T16:25:26.073Z,42.90
2019-01-22T16:27:57.400Z,42.30
2019-01-22T16:30:27.074Z,42.73
2019-01-22T16:32:56.273Z,43.53
2019-01-22T16:35:25.629Z,38.90
2019-01-22T16:37:54.831Z,41.97
2019-01-22T16:40:24.016Z,39.60
2019-01-22T16:42:53.202Z,42.73
2019-01-22T16:45:25.029Z,38.33
2019-01-22T16:47:54.540Z,42.97
2019-01-22T16:50:23.940Z,40.60
2019-01-22T16:52:53.125Z,48.93
2019-01-22T16:55:32.481Z,43.17
2019-01-22T16:58:01.683Z,36.40
2019-01-22T17:00:33.304Z,39.80
2019-01-22T17:03:02.552Z,38.30
2019-01-22T17:05:32.180Z,37.30
2019-01-22T17:08:01.374Z,33.80
2019-01-22T17:10:31.533Z,34.23
2019-01-22T17:13:00.729Z,37.70
2019-01-22T17:15:29.909Z,37.47
2019-01-22T17:18:01.070Z,34.43
2019-01-22T17:20:32.781Z,31.30
2019-01-22T17:23:02.551Z,32.73
2019-01-22T17:25:32.356Z,32.33
2019-01-22T17:28:01.564Z,35.30
2019-01-22T17:30:31.002Z,34.20
2019-01-22T17:33:01.984Z,33.90
2019-01-22T17:35:32.366Z,32.93
2019-01-22T17:38:01.545Z,33.00
2019-01-22T17:40:30.781Z,34.20
2019-01-22T17:42:59.945Z,31.93
2019-01-22T17:45:29.140Z,32.63
2019-01-22T17:47:58.367Z,33.70
2019-01-22T17:50:27.567Z,32.83
2019-01-22T17:52:56.756Z,31.97
2019-01-22T17:55:25.944Z,29.70
2019-01-22T17:57:55.142Z,34.87
2019-01-22T18:00:26.284Z,29.67
2019-01-22T18:02:55.497Z,31.33
2019-01-22T18:05:25.077Z,32.80
2019-01-22T18:07:54.268Z,29.83
2019-01-22T18:10:25.705Z,33.33
2019-01-22T18:12:54.885Z,31.83
2019-01-22T18:15:24.246Z,32.73
2019-01-22T18:17:53.426Z,32.97
2019-01-22T18:20:29.026Z,28.30
2019-01-22T18:22:58.234Z,31.43
2019-01-22T18:25:27.419Z,30.93
2019-01-22T18:27:56.601Z,31.00
2019-01-22T18:30:26.840Z,30.50
2019-01-22T18:32:56.121Z,33.83
2019-01-22T18:35:38.039Z,32.70
2019-01-22T18:38:05.221Z,33.33
2019-01-22T18:40:34.413Z,31.27
2019-01-22T18:43:03.633Z,28.00
2019-01-22T18:45:32.814Z,30.27
2019-01-22T18:48:02.027Z,28.73
2019-01-22T18:50:31.457Z,29.67
2019-01-22T18:53:01.743Z,28.47
2019-01-22T18:55:32.051Z,26.23
2019-01-22T18:58:01.535Z,29.03
2019-01-22T19:00:30.717Z,34.40
2019-01-22T19:02:59.923Z,29.83
2019-01-22T19:05:29.431Z,31.33
2019-01-22T19:07:58.927Z,31.60
2019-01-22T19:10:29.255Z,33.90
2019-01-22T19:12:58.485Z,29.23
2019-01-22T19:15:27.684Z,29.90
2019-01-22T19:17:56.857Z,27.10
2019-01-22T19:20:26.376Z,27.63
2019-01-22T19:22:55.606Z,29.40
2019-01-22T19:25:27.526Z,26.47
2019-01-22T19:27:56.707Z,26.47
2019-01-22T19:30:30.987Z,27.63
2019-01-22T19:33:00.189Z,29.00
2019-01-22T19:35:29.440Z,30.20
2019-01-22T19:37:58.634Z,29.43
2019-01-22T19:40:27.829Z,29.17
2019-01-22T19:42:57.021Z,27.03
2019-01-22T19:45:28.650Z,27.23
2019-01-22T19:47:58.029Z,27.20
2019-01-22T19:50:27.216Z,25.70
2019-01-22T19:52:58.661Z,30.00
2019-01-22T19:55:27.881Z,28.70
2019-01-22T19:57:57.074Z,25.93
2019-01-22T20:00:32.368Z,28.13
2019-01-22T20:03:01.572Z,28.03
2019-01-22T20:05:30.760Z,26.50
2019-01-22T20:07:59.940Z,27.90
2019-01-22T20:10:29.205Z,26.03
2019-01-22T20:13:00.860Z,28.00
2019-01-22T20:15:30.040Z,26.40
2019-01-22T20:17:59.252Z,29.00
2019-01-22T20:20:28.507Z,28.77
2019-01-22T20:22:57.704Z,28.70
2019-01-22T20:25:27.071Z,28.50
2019-01-22T20:27:56.321Z,29.27
2019-01-22T20:30:28.239Z,22.70
2019-01-22T20:32:57.413Z,24.03
2019-01-22T20:35:26.686Z,26.80
2019-01-22T20:37:55.915Z,25.23
2019-01-22T20:40:25.416Z,26.37
2019-01-22T20:42:54.615Z,28.57
2019-01-22T20:45:26.357Z,27.47
2019-01-22T20:47:55.536Z,27.80
2019-01-22T20:50:24.739Z,26.27
2019-01-22T20:52:55.030Z,27.30
2019-01-22T20:55:25.123Z,26.93
2019-01-22T20:57:54.980Z,26.27
2019-01-22T21:00:25.589Z,27.20
2019-01-22T21:02:54.857Z,31.07
2019-01-22T21:05:26.485Z,31.17
2019-01-22T21:07:55.691Z,27.07
2019-01-22T21:10:31.481Z,28.50
2019-01-22T21:13:00.764Z,27.23
2019-01-22T21:15:30.437Z,26.90
2019-01-22T21:17:59.616Z,26.80
2019-01-22T21:20:29.105Z,24.70
2019-01-22T21:22:58.305Z,27.53
2019-01-22T21:25:27.489Z,28.23
2019-01-22T21:28:01.658Z,28.33
2019-01-22T21:30:29.731Z,27.47
2019-01-22T21:32:58.974Z,24.57
2019-01-22T21:35:28.153Z,29.83
2019-01-22T21:37:57.365Z,29.03
2019-01-22T21:40:26.889Z,25.93
2019-01-22T21:42:56.096Z,25.13
2019-01-22T21:45:29.297Z,26.17
2019-01-22T21:47:58.480Z,28.40
2019-01-22T21:50:27.984Z,30.10
2019-01-22T21:52:57.167Z,27.63
2019-01-22T21:55:27.435Z,26.17
2019-01-22T21:57:56.715Z,30.83
2019-01-22T22:00:27.024Z,26.00
2019-01-22T22:02:56.225Z,26.17
2019-01-22T22:05:30.139Z,28.30
2019-01-22T22:07:59.647Z,25.40
2019-01-22T22:10:28.835Z,27.10
2019-01-22T22:12:58.032Z,29.43
2019-01-22T22:15:27.213Z,29.23
2019-01-22T22:17:56.401Z,27.43
2019-01-22T22:20:25.582Z,31.37
2019-01-22T22:22:54.762Z,27.60
2019-01-22T22:25:24.128Z,30.77
2019-01-22T22:27:53.312Z,33.93
2019-01-22T22:30:31.298Z,32.20
2019-01-22T22:33:00.547Z,28.97
2019-01-22T22:35:29.733Z,32.00
2019-01-22T22:37:59.334Z,30.60
2019-01-22T22:40:28.754Z,36.50
2019-01-22T22:42:58.116Z,32.27
2019-01-22T22:45:28.289Z,35.40
2019-01-22T22:47:57.473Z,32.47
2019-01-22T22:50:31.768Z,35.97
2019-01-22T22:53:00.933Z,34.20
2019-01-22T22:55:30.143Z,33.37
2019-01-22T22:57:59.363Z,33.33
2019-01-22T23:00:41.820Z,33.00
2019-01-22T23:03:13.380Z,31.60
2019-01-22T23:05:42.573Z,34.30
2019-01-22T23:08:11.848Z,35.33
2019-01-22T23:10:41.379Z,35.47
2019-01-22T23:13:10.908Z,35.47
2019-01-22T23:15:41.132Z,36.00
2019-01-22T23:18:10.497Z,33.97
2019-01-22T23:20:39.678Z,32.10
2019-01-22T23:23:08.877Z,37.37
2019-01-22T23:25:38.058Z,34.37
2019-01-22T23:28:07.240Z,33.20
2019-01-22T23:30:36.420Z,39.23
2019-01-22T23:33:05.788Z,38.00
2019-01-22T23:35:36.064Z,34.73
2019-01-22T23:38:05.245Z,34.37
2019-01-22T23:40:34.449Z,30.40
2019-01-22T23:43:03.645Z,34.73
2019-01-22T23:45:32.848Z,35.50
2019-01-22T23:48:02.061Z,37.20
2019-01-22T23:50:31.261Z,35.70
2019-01-22T23:53:00.444Z,37.00
2019-01-22T23:55:29.646Z,36.37
2019-01-22T23:57:58.825Z,31.80
